createdAt,value
2018-03-24T00:01:37.149Z,18.47
2018-03-24T00:04:05.402Z,17.37
2018-03-24T00:06:34.446Z,16.65
2018-03-24T00:09:02.678Z,16.75
2018-03-24T00:11:30.950Z,17.00
2018-03-24T00:13:59.262Z,16.42
2018-03-24T00:16:27.477Z,17.15
2018-03-24T00:18:55.785Z,15.55
2018-03-24T00:21:24.882Z,17.17
2018-03-24T00:23:53.138Z,17.30
2018-03-24T00:26:22.276Z,15.93
2018-03-24T00:28:50.547Z,16.48
2018-03-24T00:31:18.818Z,15.88
2018-03-24T00:33:47.116Z,15.83
2018-03-24T00:36:15.368Z,14.65
2018-03-24T00:38:43.595Z,15.93
2018-03-24T00:41:11.916Z,15.32
2018-03-24T00:43:40.226Z,15.07
2018-03-24T00:46:08.611Z,14.82
2018-03-24T00:48:36.944Z,15.57
2018-03-24T00:51:06.107Z,13.93
2018-03-24T00:53:34.499Z,15.13
2018-03-24T00:56:02.839Z,14.57
2018-03-24T00:58:31.095Z,15.23
2018-03-24T01:00:59.496Z,14.82
2018-03-24T01:03:27.857Z,14.68
2018-03-24T01:05:56.325Z,15.07
2018-03-24T01:08:24.664Z,14.13
2018-03-24T01:10:52.921Z,13.73
2018-03-24T01:13:21.216Z,14.47
2018-03-24T01:15:49.508Z,13.75
2018-03-24T01:18:18.625Z,13.77
2018-03-24T01:20:46.874Z,12.60
2018-03-24T01:23:15.185Z,13.62
2018-03-24T01:25:43.501Z,13.05
2018-03-24T01:28:11.741Z,13.10
2018-03-24T01:30:40.016Z,12.93
2018-03-24T01:33:08.281Z,11.88
2018-03-24T01:35:37.280Z,11.90
2018-03-24T01:38:05.502Z,11.82
2018-03-24T01:40:33.756Z,12.02
2018-03-24T01:43:02.085Z,11.35
2018-03-24T01:45:31.129Z,11.12
2018-03-24T01:47:59.363Z,11.32
2018-03-24T01:50:28.371Z,11.18
2018-03-24T01:52:56.596Z,11.23
2018-03-24T01:55:24.853Z,10.80
2018-03-24T01:57:53.087Z,11.00
2018-03-24T02:00:22.078Z,11.68
2018-03-24T02:02:51.105Z,10.80
2018-03-24T02:05:19.325Z,11.38
2018-03-24T02:07:47.588Z,10.98
2018-03-24T02:10:15.825Z,11.45
2018-03-24T02:12:44.081Z,11.93
2018-03-24T02:15:13.082Z,12.67
2018-03-24T02:17:42.152Z,13.77
2018-03-24T02:20:10.405Z,13.13
2018-03-24T02:22:38.689Z,11.70
2018-03-24T02:25:06.941Z,10.90
2018-03-24T02:27:35.190Z,11.70
2018-03-24T02:30:03.482Z,11.27
2018-03-24T02:32:31.727Z,11.63
2018-03-24T02:35:00.755Z,11.43
2018-03-24T02:37:28.968Z,11.25
2018-03-24T02:39:57.238Z,11.73
2018-03-24T02:42:25.490Z,11.25
2018-03-24T02:44:53.755Z,11.12
2018-03-24T02:47:21.971Z,12.15
2018-03-24T02:49:50.225Z,11.80
2018-03-24T02:52:18.457Z,11.85
2018-03-24T02:54:47.479Z,11.85
2018-03-24T02:57:15.729Z,12.13
2018-03-24T02:59:44.730Z,11.57
2018-03-24T03:02:12.980Z,11.48
2018-03-24T03:04:41.229Z,12.13
2018-03-24T03:07:09.483Z,12.02
2018-03-24T03:09:37.750Z,12.23
2018-03-24T03:12:05.988Z,13.17
2018-03-24T03:14:34.215Z,11.88
2018-03-24T03:17:02.450Z,12.40
2018-03-24T03:19:31.474Z,12.05
2018-03-24T03:21:59.713Z,12.63
2018-03-24T03:24:28.714Z,12.25
2018-03-24T03:26:57.731Z,12.05
2018-03-24T03:29:26.014Z,12.43
2018-03-24T03:34:55.657Z,13.20
2018-03-24T03:37:23.888Z,12.10
2018-03-24T03:39:52.928Z,12.30
2018-03-24T03:42:21.159Z,12.43
2018-03-24T03:44:50.246Z,12.15
2018-03-24T03:47:18.477Z,12.13
2018-03-24T03:49:46.740Z,12.70
2018-03-24T03:52:14.986Z,12.80
2018-03-24T03:54:44.013Z,12.13
2018-03-24T03:57:12.262Z,12.82
2018-03-24T03:59:40.520Z,12.90
2018-03-24T04:02:09.552Z,12.48
2018-03-24T04:04:37.820Z,12.32
2018-03-24T04:07:06.083Z,12.70
2018-03-24T04:09:35.108Z,12.80
2018-03-24T04:12:03.358Z,12.70
2018-03-24T04:14:32.383Z,13.00
2018-03-24T04:17:00.638Z,12.27
2018-03-24T04:19:28.957Z,12.87
2018-03-24T04:21:57.970Z,13.00
2018-03-24T04:24:26.274Z,13.23
2018-03-24T04:26:55.303Z,13.20
2018-03-24T04:29:23.528Z,13.32
2018-03-24T04:31:51.903Z,13.45
2018-03-24T04:34:20.182Z,13.90
2018-03-24T04:36:48.424Z,13.68
2018-03-24T04:39:17.489Z,14.13
2018-03-24T04:41:45.738Z,13.27
2018-03-24T04:44:14.820Z,13.15
2018-03-24T04:46:43.072Z,13.77
2018-03-24T04:49:11.484Z,13.65
2018-03-24T04:51:39.706Z,12.85
2018-03-24T04:54:07.967Z,14.15
2018-03-24T04:56:36.195Z,14.40
2018-03-24T04:59:04.432Z,14.07
2018-03-24T05:01:32.702Z,14.60
2018-03-24T05:04:00.996Z,14.25
2018-03-24T05:06:29.955Z,14.10
2018-03-24T05:08:58.967Z,14.45
2018-03-24T05:11:27.259Z,13.95
2018-03-24T05:13:55.522Z,13.80
2018-03-24T05:16:23.771Z,14.02
2018-03-24T05:18:52.774Z,13.55
2018-03-24T05:21:21.076Z,13.73
2018-03-24T05:23:49.309Z,13.43
2018-03-24T05:26:18.465Z,13.57
2018-03-24T05:28:47.402Z,14.23
2018-03-24T05:31:16.415Z,14.32
2018-03-24T05:33:44.698Z,14.33
2018-03-24T05:36:12.941Z,13.60
2018-03-24T05:38:41.958Z,14.07
2018-03-24T05:41:10.209Z,13.85
2018-03-24T05:43:39.274Z,13.60
2018-03-24T05:46:07.612Z,14.40
2018-03-24T05:48:35.849Z,13.40
2018-03-24T05:51:04.794Z,13.30
2018-03-24T05:53:33.043Z,13.82
2018-03-24T05:56:02.089Z,14.15
2018-03-24T05:58:30.418Z,14.40
2018-03-24T06:00:58.690Z,14.57
2018-03-24T06:03:27.697Z,13.47
2018-03-24T06:05:55.945Z,14.10
2018-03-24T06:08:25.015Z,13.80
2018-03-24T06:10:53.242Z,14.00
2018-03-24T06:13:21.520Z,13.35
2018-03-24T06:15:49.786Z,14.00
2018-03-24T06:18:18.780Z,13.37
2018-03-24T06:20:47.851Z,13.45
2018-03-24T06:23:16.114Z,13.90
2018-03-24T06:25:44.365Z,13.45
2018-03-24T06:28:12.640Z,13.30
2018-03-24T06:30:44.346Z,13.27
2018-03-24T06:33:13.390Z,13.57
2018-03-24T06:35:41.647Z,13.27
2018-03-24T06:38:09.885Z,13.98
2018-03-24T06:40:38.105Z,13.43
2018-03-24T06:43:06.426Z,13.23
2018-03-24T06:45:34.660Z,13.40
2018-03-24T06:48:02.927Z,13.27
2018-03-24T06:50:31.170Z,14.00
2018-03-24T06:52:59.412Z,13.98
2018-03-24T06:55:33.413Z,13.00
2018-03-24T06:58:01.661Z,13.55
2018-03-24T07:00:29.907Z,13.80
2018-03-24T07:02:58.191Z,13.93
2018-03-24T07:05:27.194Z,13.68
2018-03-24T07:07:56.249Z,13.93
2018-03-24T07:10:24.499Z,13.70
2018-03-24T07:12:52.735Z,14.05
2018-03-24T07:15:21.752Z,13.85
2018-03-24T07:17:50.002Z,14.00
2018-03-24T07:22:53.623Z,13.45
2018-03-24T07:25:22.628Z,13.73
2018-03-24T07:27:50.860Z,13.75
2018-03-24T07:30:19.091Z,13.90
2018-03-24T07:32:47.351Z,13.82
2018-03-24T07:35:16.375Z,13.62
2018-03-24T07:37:44.626Z,13.95
2018-03-24T07:40:13.634Z,13.07
2018-03-24T07:42:42.615Z,13.60
2018-03-24T07:45:11.644Z,13.38
2018-03-24T07:47:39.907Z,12.70
2018-03-24T07:50:08.099Z,13.18
2018-03-24T07:52:36.353Z,12.50
2018-03-24T07:55:04.666Z,12.35
2018-03-24T07:57:32.939Z,13.55
2018-03-24T08:00:01.165Z,13.45
2018-03-24T08:02:29.392Z,11.65
2018-03-24T08:04:57.633Z,12.13
2018-03-24T08:07:25.866Z,13.00
2018-03-24T08:09:54.112Z,12.70
2018-03-24T08:12:22.352Z,12.70
2018-03-24T08:14:51.360Z,12.75
2018-03-24T08:17:19.621Z,12.68
2018-03-24T08:19:48.630Z,11.52
2018-03-24T08:22:16.859Z,12.32
2018-03-24T08:24:45.084Z,11.85
2018-03-24T08:27:13.387Z,13.30
2018-03-24T08:29:41.625Z,11.20
2018-03-24T08:32:09.878Z,12.10
2018-03-24T08:34:38.871Z,11.90
2018-03-24T08:37:07.905Z,11.77
2018-03-24T08:39:36.149Z,11.55
2018-03-24T08:42:04.373Z,12.02
2018-03-24T08:44:32.602Z,12.35
2018-03-24T08:47:01.626Z,12.88
2018-03-24T08:49:29.863Z,12.80
2018-03-24T08:51:58.888Z,12.25
2018-03-24T08:54:27.111Z,12.48
2018-03-24T08:56:55.353Z,12.57
2018-03-24T08:59:23.603Z,12.37
2018-03-24T09:01:52.598Z,12.23
2018-03-24T09:04:20.861Z,12.70
2018-03-24T09:06:49.862Z,12.40
2018-03-24T09:09:18.869Z,12.63
2018-03-24T09:11:47.130Z,12.60
2018-03-24T09:14:16.114Z,12.27
2018-03-24T09:16:45.127Z,13.77
2018-03-24T09:19:13.392Z,13.25
2018-03-24T09:21:42.405Z,13.57
2018-03-24T09:24:10.630Z,13.45
2018-03-24T09:26:38.890Z,12.50
2018-03-24T09:29:07.121Z,13.23
2018-03-24T09:31:35.373Z,13.35
2018-03-24T09:34:03.651Z,13.13
2018-03-24T09:36:31.882Z,13.35
2018-03-24T09:39:00.210Z,12.80
2018-03-24T09:41:29.203Z,12.85
2018-03-24T09:43:58.274Z,13.48
2018-03-24T09:46:26.594Z,13.15
2018-03-24T09:48:55.651Z,13.50
2018-03-24T09:51:23.961Z,15.23
2018-03-24T09:53:53.139Z,14.20
2018-03-24T09:56:21.442Z,14.13
2018-03-24T09:58:50.563Z,13.40
2018-03-24T10:01:18.897Z,13.93
2018-03-24T10:03:47.139Z,14.30
2018-03-24T10:06:15.467Z,13.70
2018-03-24T10:08:44.490Z,13.98
2018-03-24T10:11:12.737Z,15.73
2018-03-24T10:13:41.735Z,15.45
2018-03-24T10:16:09.986Z,14.90
2018-03-24T10:18:38.232Z,14.23
2018-03-24T10:24:25.878Z,15.27
2018-03-24T10:26:54.150Z,15.20
2018-03-24T10:29:22.394Z,15.05
2018-03-24T10:31:50.644Z,15.67
2018-03-24T10:34:18.907Z,15.07
2018-03-24T10:36:47.160Z,15.50
2018-03-24T10:39:15.398Z,15.65
2018-03-24T10:41:43.878Z,14.65
2018-03-24T10:44:12.887Z,15.60
2018-03-24T10:46:41.347Z,15.38
2018-03-24T10:49:10.042Z,15.75
2018-03-24T10:51:38.279Z,15.88
2018-03-24T10:54:06.827Z,15.57
2018-03-24T10:56:35.229Z,17.12
2018-03-24T10:59:03.833Z,15.60
2018-03-24T11:01:32.346Z,15.67
2018-03-24T11:04:00.697Z,15.88
2018-03-24T11:06:29.090Z,17.60
2018-03-24T11:08:58.306Z,15.60
2018-03-24T11:11:26.650Z,15.48
2018-03-24T11:13:54.907Z,14.77
2018-03-24T11:16:23.288Z,14.23
2018-03-24T11:18:51.694Z,13.60
2018-03-24T11:21:20.850Z,13.60
2018-03-24T11:23:49.145Z,14.57
2018-03-24T11:26:17.438Z,13.05
2018-03-24T11:28:45.975Z,13.77
2018-03-24T11:31:14.502Z,13.40
2018-03-24T11:33:42.863Z,11.73
2018-03-24T11:36:11.126Z,12.93
2018-03-24T11:38:39.506Z,13.43
2018-03-24T11:41:07.783Z,13.50
2018-03-24T11:43:36.114Z,13.43
2018-03-24T11:46:04.523Z,13.30
2018-03-24T11:48:32.886Z,13.68
2018-03-24T11:51:01.148Z,14.20
2018-03-24T11:53:42.210Z,13.98
2018-03-24T11:56:11.266Z,14.23
2018-03-24T11:58:39.718Z,14.45
2018-03-24T12:01:08.052Z,14.77
2018-03-24T12:03:36.356Z,14.67
2018-03-24T12:06:05.537Z,13.82
2018-03-24T12:08:34.448Z,14.32
2018-03-24T12:11:02.714Z,13.88
2018-03-24T12:13:31.786Z,13.52
2018-03-24T12:16:00.022Z,13.65
2018-03-24T12:18:28.398Z,13.95
2018-03-24T12:20:57.572Z,13.70
2018-03-24T12:23:26.660Z,13.75
2018-03-24T12:25:55.726Z,14.30
2018-03-24T12:28:23.993Z,14.30
2018-03-24T12:30:52.337Z,13.95
2018-03-24T12:33:20.609Z,13.48
2018-03-24T12:35:48.858Z,14.52
2018-03-24T12:38:17.873Z,13.38
2018-03-24T12:40:46.190Z,13.73
2018-03-24T12:43:14.461Z,13.98
2018-03-24T12:45:42.815Z,14.65
2018-03-24T12:48:11.158Z,13.73
2018-03-24T12:50:39.475Z,13.50
2018-03-24T12:53:07.758Z,13.35
2018-03-24T12:55:35.982Z,13.25
2018-03-24T12:58:04.676Z,14.02
2018-03-24T13:00:32.906Z,13.50
2018-03-24T13:03:01.162Z,14.07
2018-03-24T13:05:29.433Z,14.68
2018-03-24T13:07:57.706Z,14.23
2018-03-24T13:10:26.178Z,20.27
2018-03-24T13:12:54.502Z,14.25
2018-03-24T13:15:22.771Z,14.68
2018-03-24T13:17:51.159Z,15.88
2018-03-24T13:20:19.492Z,16.20
2018-03-24T13:22:48.764Z,16.23
2018-03-24T13:25:17.830Z,19.10
2018-03-24T13:27:46.311Z,14.35
2018-03-24T13:30:14.623Z,13.90
2018-03-24T13:32:42.938Z,11.23
2018-03-24T13:35:11.195Z,12.90
2018-03-24T13:37:40.241Z,11.53
2018-03-24T13:40:08.482Z,11.37
2018-03-24T13:42:36.729Z,13.50
2018-03-24T13:45:05.870Z,13.18
2018-03-24T13:47:34.215Z,13.43
2018-03-24T13:50:03.237Z,13.13
2018-03-24T13:52:31.560Z,13.10
2018-03-24T13:54:59.871Z,12.98
2018-03-24T13:57:28.227Z,13.30
2018-03-24T13:59:56.532Z,13.62
2018-03-24T14:02:25.569Z,13.20
2018-03-24T14:04:53.856Z,14.20
2018-03-24T14:07:22.186Z,14.40
2018-03-24T14:09:50.453Z,14.60
2018-03-24T14:12:18.724Z,14.68
2018-03-24T14:14:47.816Z,15.25
2018-03-24T14:17:16.061Z,14.38
2018-03-24T14:19:44.308Z,14.33
2018-03-24T14:22:12.632Z,14.77
2018-03-24T14:24:40.979Z,14.43
2018-03-24T14:27:09.241Z,15.48
2018-03-24T14:29:37.579Z,15.65
2018-03-24T14:32:06.661Z,15.32
2018-03-24T14:34:35.089Z,15.93
2018-03-24T14:37:03.416Z,15.43
2018-03-24T14:39:31.714Z,14.77
2018-03-24T14:42:00.748Z,15.50
2018-03-24T14:44:28.989Z,14.95
2018-03-24T14:46:58.078Z,15.27
2018-03-24T14:49:27.085Z,14.87
2018-03-24T14:51:55.397Z,16.48
2018-03-24T14:54:23.757Z,16.10
2018-03-24T14:56:51.932Z,16.55
2018-03-24T14:59:20.273Z,16.73
2018-03-24T15:01:48.515Z,16.37
2018-03-24T15:04:17.712Z,16.90
2018-03-24T15:06:45.995Z,16.92
2018-03-24T15:09:14.262Z,16.00
2018-03-24T15:11:42.647Z,16.75
2018-03-24T15:14:11.049Z,17.98
2018-03-24T15:16:39.329Z,18.02
2018-03-24T15:19:07.658Z,18.73
2018-03-24T15:21:36.105Z,18.65
2018-03-24T15:24:05.146Z,19.45
2018-03-24T15:26:33.391Z,18.33
2018-03-24T15:29:13.743Z,19.48
2018-03-24T15:31:54.039Z,19.85
2018-03-24T15:34:34.131Z,20.35
2018-03-24T15:37:02.475Z,20.05
2018-03-24T15:39:30.724Z,20.05
2018-03-24T15:41:59.062Z,20.45
2018-03-24T15:44:27.350Z,19.55
2018-03-24T15:46:55.758Z,19.85
2018-03-24T15:49:24.184Z,20.20
2018-03-24T15:51:52.475Z,22.23
2018-03-24T15:54:20.736Z,22.30
2018-03-24T15:56:48.968Z,20.73
2018-03-24T15:59:17.220Z,19.87
2018-03-24T16:01:45.789Z,18.90
2018-03-24T16:04:14.057Z,18.73
2018-03-24T16:06:42.396Z,20.30
2018-03-24T16:09:10.651Z,19.23
2018-03-24T16:11:39.157Z,19.45
2018-03-24T16:14:07.517Z,20.88
2018-03-24T16:16:35.832Z,19.90
2018-03-24T16:19:04.104Z,20.00
2018-03-24T16:21:32.459Z,19.62
2018-03-24T16:24:00.901Z,20.30
2018-03-24T16:26:29.208Z,19.60
2018-03-24T16:28:57.467Z,19.67
2018-03-24T16:31:26.850Z,20.42
2018-03-24T16:33:55.161Z,19.60
2018-03-24T16:36:23.423Z,19.87
2018-03-24T16:38:52.590Z,18.80
2018-03-24T16:41:20.889Z,19.23
2018-03-24T16:43:49.615Z,21.25
2018-03-24T16:46:18.010Z,19.12
2018-03-24T16:48:46.319Z,18.90
2018-03-24T16:51:14.749Z,18.73
2018-03-24T16:53:43.015Z,20.20
2018-03-24T16:56:11.303Z,18.92
2018-03-24T16:58:39.601Z,21.97
2018-03-24T17:01:07.947Z,23.25
2018-03-24T17:03:36.390Z,20.27
2018-03-24T17:06:04.698Z,20.45
2018-03-24T17:08:33.302Z,18.98
2018-03-24T17:11:01.554Z,19.93
2018-03-24T17:13:30.947Z,19.87
2018-03-24T17:15:59.305Z,20.65
2018-03-24T17:18:27.567Z,20.05
2018-03-24T17:20:56.017Z,21.52
2018-03-24T17:23:24.284Z,21.05
2018-03-24T17:25:52.558Z,20.83
2018-03-24T17:28:20.878Z,21.50
2018-03-24T17:30:49.977Z,20.80
2018-03-24T17:33:18.221Z,21.60
2018-03-24T17:35:46.485Z,21.25
2018-03-24T17:38:15.306Z,22.95
2018-03-24T17:40:43.620Z,22.35
2018-03-24T17:43:11.898Z,22.98
2018-03-24T17:45:41.001Z,23.12
2018-03-24T17:48:10.011Z,24.50
2018-03-24T17:50:38.274Z,22.77
2018-03-24T17:53:07.504Z,23.17
2018-03-24T17:55:35.745Z,22.87
2018-03-24T17:58:04.782Z,24.02
2018-03-24T18:00:33.115Z,26.77
2018-03-24T18:03:01.611Z,23.27
2018-03-24T18:05:29.894Z,23.83
2018-03-24T18:07:59.011Z,23.37
2018-03-24T18:10:28.019Z,22.98
2018-03-24T18:12:56.243Z,25.08
2018-03-24T18:15:25.295Z,24.60
2018-03-24T18:17:54.149Z,24.23
2018-03-24T18:20:23.004Z,25.08
2018-03-24T18:22:51.238Z,24.52
2018-03-24T18:25:19.666Z,30.50
2018-03-24T18:27:47.924Z,25.75
2018-03-24T18:30:16.146Z,26.33
2018-03-24T18:32:44.808Z,26.80
2018-03-24T18:35:13.039Z,26.65
2018-03-24T18:37:41.429Z,26.50
2018-03-24T18:40:09.769Z,25.88
2018-03-24T18:42:37.993Z,26.40
2018-03-24T18:45:06.463Z,28.03
2018-03-24T18:47:34.769Z,27.52
2018-03-24T18:50:03.034Z,28.10
2018-03-24T18:52:31.326Z,28.05
2018-03-24T18:54:59.585Z,27.58
2018-03-24T18:57:27.883Z,26.87
2018-03-24T18:59:56.880Z,27.10
2018-03-24T19:02:25.132Z,27.17
2018-03-24T19:04:53.350Z,28.45
2018-03-24T19:07:21.599Z,26.48
2018-03-24T19:09:49.876Z,26.35
2018-03-24T19:12:18.119Z,27.27
2018-03-24T19:14:46.408Z,26.25
2018-03-24T19:17:14.632Z,26.77
2018-03-24T19:19:42.916Z,25.62
2018-03-24T19:22:11.162Z,25.48
2018-03-24T19:24:40.203Z,24.37
2018-03-24T19:27:08.438Z,25.42
2018-03-24T19:29:37.458Z,25.60
2018-03-24T19:32:05.711Z,25.05
2018-03-24T19:34:34.695Z,24.60
2018-03-24T19:37:02.941Z,24.15
2018-03-24T19:39:31.167Z,23.60
2018-03-24T19:42:00.183Z,24.52
2018-03-24T19:44:28.431Z,23.90
2018-03-24T19:46:57.426Z,24.45
2018-03-24T19:49:26.455Z,23.75
2018-03-24T19:51:54.675Z,24.58
2018-03-24T19:54:22.923Z,23.60
2018-03-24T19:56:51.146Z,24.45
2018-03-24T19:59:20.159Z,25.42
2018-03-24T20:01:48.377Z,24.63
2018-03-24T20:04:16.642Z,26.30
2018-03-24T20:06:44.868Z,25.90
2018-03-24T20:09:13.910Z,26.15
2018-03-24T20:11:42.122Z,25.65
2018-03-24T20:14:10.363Z,26.30
2018-03-24T20:16:39.369Z,27.02
2018-03-24T20:19:07.612Z,25.75
2018-03-24T20:21:35.851Z,25.25
2018-03-24T20:24:04.888Z,25.52
2018-03-24T20:26:33.117Z,25.58
2018-03-24T20:29:02.139Z,26.48
2018-03-24T20:31:30.389Z,26.67
2018-03-24T20:33:59.408Z,25.85
2018-03-24T20:36:27.630Z,28.15
2018-03-24T20:38:55.894Z,25.80
2018-03-24T20:41:24.212Z,25.90
2018-03-24T20:43:52.493Z,24.52
2018-03-24T20:46:21.517Z,24.63
2018-03-24T20:48:49.774Z,25.85
2018-03-24T20:51:18.851Z,26.90
2018-03-24T20:53:47.161Z,25.27
2018-03-24T20:56:15.389Z,25.23
2018-03-24T20:58:43.893Z,25.15
2018-03-24T21:01:12.125Z,25.15
2018-03-24T21:03:40.594Z,25.33
2018-03-24T21:06:08.818Z,25.77
2018-03-24T21:08:37.101Z,26.70
2018-03-24T21:11:06.162Z,25.98
2018-03-24T21:13:34.420Z,25.70
2018-03-24T21:16:02.669Z,26.90
2018-03-24T21:18:31.056Z,25.47
2018-03-24T21:20:59.361Z,25.10
2018-03-24T21:23:27.762Z,25.88
2018-03-24T21:25:56.096Z,25.35
2018-03-24T21:28:24.328Z,25.67
2018-03-24T21:30:52.583Z,24.65
2018-03-24T21:33:20.811Z,24.40
2018-03-24T21:35:49.060Z,24.77
2018-03-24T21:38:17.294Z,25.58
2018-03-24T21:40:45.551Z,25.00
2018-03-24T21:43:13.838Z,23.90
2018-03-24T21:45:42.790Z,28.05
2018-03-24T21:48:11.904Z,30.42
2018-03-24T21:50:40.990Z,24.83
2018-03-24T21:53:09.245Z,24.55
2018-03-24T21:55:37.498Z,24.90
2018-03-24T21:58:05.749Z,24.20
2018-03-24T22:00:34.015Z,23.90
2018-03-24T22:03:02.278Z,23.38
2018-03-24T22:05:30.516Z,23.45
2018-03-24T22:07:58.768Z,23.98
2018-03-24T22:10:27.023Z,23.83
2018-03-24T22:12:55.462Z,23.00
2018-03-24T22:15:23.683Z,29.15
2018-03-24T22:17:51.975Z,23.17
2018-03-24T22:20:20.498Z,23.15
2018-03-24T22:22:48.731Z,23.20
2018-03-24T22:25:17.002Z,23.00
2018-03-24T22:27:45.278Z,23.75
2018-03-24T22:30:13.517Z,23.58
2018-03-24T22:32:42.539Z,23.65
2018-03-24T22:35:10.782Z,23.43
2018-03-24T22:37:39.878Z,23.87
2018-03-24T22:40:08.093Z,24.73
2018-03-24T22:42:36.474Z,24.55
2018-03-24T22:45:04.689Z,24.12
2018-03-24T22:47:32.934Z,24.95
2018-03-24T22:50:01.174Z,24.25
2018-03-24T22:52:30.197Z,24.20
2018-03-24T22:54:58.505Z,24.53
2018-03-24T22:57:26.818Z,24.45
2018-03-24T22:59:55.816Z,24.00
2018-03-24T23:02:24.044Z,23.38
2018-03-24T23:04:52.417Z,24.48
2018-03-24T23:07:20.632Z,23.95
2018-03-24T23:09:49.641Z,23.60
2018-03-24T23:12:17.886Z,23.98
2018-03-24T23:14:46.213Z,22.37
2018-03-24T23:17:14.438Z,22.15
2018-03-24T23:19:42.752Z,23.20
2018-03-24T23:22:10.985Z,24.08
2018-03-24T23:24:39.248Z,24.27
2018-03-24T23:27:07.521Z,24.50
2018-03-24T23:29:35.784Z,24.17
2018-03-24T23:32:04.130Z,24.83
2018-03-24T23:34:33.170Z,24.30
2018-03-24T23:37:01.498Z,24.52
2018-03-24T23:39:30.550Z,24.47
2018-03-24T23:41:59.593Z,23.00
2018-03-24T23:44:27.842Z,23.12
2018-03-24T23:46:56.151Z,23.35
2018-03-24T23:49:24.370Z,23.50
2018-03-24T23:51:52.650Z,22.45
2018-03-24T23:54:20.950Z,23.42
2018-03-24T23:56:49.216Z,23.27
2018-03-24T23:59:17.443Z,23.50
